sensor_id;sensor_type;location;lat;lon;timestamp;temperature;humidity
10336;DHT22;5213;53.548;9.930;2024-02-21T00:01:06;8.80;1.00
10336;DHT22;5213;53.548;9.930;2024-02-21T00:03:31;8.80;1.00
10336;DHT22;5213;53.548;9.930;2024-02-21T00:05:57;9.00;1.00
10336;DHT22;5213;53.548;9.930;2024-02-21T00:08:23;8.90;1.00
10336;DHT22;5213;53.548;9.930;2024-02-21T00:10:48;8.90;1.00
10336;DHT22;5213;53.548;9.930;2024-02-21T00:13:14;8.70;1.00
10336;DHT22;5213;53.548;9.930;2024-02-21T00:15:40;9.00;1.00
10336;DHT22;5213;53.548;9.930;2024-02-21T00:18:06;8.60;1.00
10336;DHT22;5213;53.548;9.930;2024-02-21T00:20:31;8.70;1.00
10336;DHT22;5213;53.548;9.930;2024-02-21T00:22:57;8.90;1.00
10336;DHT22;5213;53.548;9.930;2024-02-21T00:25:23;8.70;1.00
10336;DHT22;5213;53.548;9.930;2024-02-21T00:27:48;8.70;1.00
10336;DHT22;5213;53.548;9.930;2024-02-21T00:30:14;8.80;1.00
10336;DHT22;5213;53.548;9.930;2024-02-21T00:32:40;8.70;1.00
10336;DHT22;5213;53.548;9.930;2024-02-21T00:35:05;8.60;1.00
10336;DHT22;5213;53.548;9.930;2024-02-21T00:37:31;8.70;1.00
10336;DHT22;5213;53.548;9.930;2024-02-21T00:39:57;8.70;1.00
10336;DHT22;5213;53.548;9.930;2024-02-21T00:42:23;8.60;1.00
10336;DHT22;5213;53.548;9.930;2024-02-21T00:44:48;8.70;1.00
10336;DHT22;5213;53.548;9.930;2024-02-21T00:47:14;8.90;1.00
10336;DHT22;5213;53.548;9.930;2024-02-21T00:49:39;8.90;1.00
10336;DHT22;5213;53.548;9.930;2024-02-21T00:52:06;8.80;1.00
10336;DHT22;5213;53.548;9.930;2024-02-21T00:54:31;8.80;1.00
10336;DHT22;5213;53.548;9.930;2024-02-21T00:56:57;8.80;1.00
10336;DHT22;5213;53.548;9.930;2024-02-21T00:59:22;8.80;1.00
10336;DHT22;5213;53.548;9.930;2024-02-21T01:01:48;8.90;1.00
10336;DHT22;5213;53.548;9.930;2024-02-21T01:04:14;8.70;1.00
10336;DHT22;5213;53.548;9.930;2024-02-21T01:06:39;8.70;1.00
10336;DHT22;5213;53.548;9.930;2024-02-21T01:09:08;8.80;1.00
10336;DHT22;5213;53.548;9.930;2024-02-21T01:11:33;8.70;1.00
10336;DHT22;5213;53.548;9.930;2024-02-21T01:13:59;8.90;1.00
10336;DHT22;5213;53.548;9.930;2024-02-21T01:16:25;9.00;1.00
10336;DHT22;5213;53.548;9.930;2024-02-21T01:18:51;8.80;1.00
10336;DHT22;5213;53.548;9.930;2024-02-21T01:21:17;8.90;1.00
10336;DHT22;5213;53.548;9.930;2024-02-21T01:23:43;8.80;1.00
10336;DHT22;5213;53.548;9.930;2024-02-21T01:26:08;8.90;1.00
10336;DHT22;5213;53.548;9.930;2024-02-21T01:28:38;8.90;1.00
10336;DHT22;5213;53.548;9.930;2024-02-21T01:31:04;8.80;1.00
10336;DHT22;5213;53.548;9.930;2024-02-21T01:33:29;8.90;1.00
10336;DHT22;5213;53.548;9.930;2024-02-21T01:36:03;9.20;1.00
10336;DHT22;5213;53.548;9.930;2024-02-21T01:38:32;8.80;1.00
10336;DHT22;5213;53.548;9.930;2024-02-21T01:40:58;8.90;1.00
10336;DHT22;5213;53.548;9.930;2024-02-21T01:43:24;8.80;1.00
10336;DHT22;5213;53.548;9.930;2024-02-21T01:45:52;8.80;1.00
10336;DHT22;5213;53.548;9.930;2024-02-21T01:48:18;8.80;1.00
10336;DHT22;5213;53.548;9.930;2024-02-21T01:50:45;8.80;1.00
10336;DHT22;5213;53.548;9.930;2024-02-21T01:53:13;8.70;1.00
10336;DHT22;5213;53.548;9.930;2024-02-21T01:55:45;8.60;1.00
10336;DHT22;5213;53.548;9.930;2024-02-21T01:58:12;8.80;1.00
10336;DHT22;5213;53.548;9.930;2024-02-21T02:00:41;8.50;1.00
10336;DHT22;5213;53.548;9.930;2024-02-21T02:03:11;8.50;1.00
10336;DHT22;5213;53.548;9.930;2024-02-21T02:05:44;8.50;1.00
10336;DHT22;5213;53.548;9.930;2024-02-21T02:08:10;9.00;9.80
10336;DHT22;5213;53.548;9.930;2024-02-21T02:10:37;8.50;35.40
10336;DHT22;5213;53.548;9.930;2024-02-21T02:13:02;8.50;82.40
10336;DHT22;5213;53.548;9.930;2024-02-21T02:15:38;8.40;92.90
10336;DHT22;5213;53.548;9.930;2024-02-21T02:18:03;8.60;99.90
10336;DHT22;5213;53.548;9.930;2024-02-21T02:20:29;8.50;99.90
10336;DHT22;5213;53.548;9.930;2024-02-21T02:22:55;8.60;99.90
10336;DHT22;5213;53.548;9.930;2024-02-21T02:25:21;8.30;99.90
10336;DHT22;5213;53.548;9.930;2024-02-21T02:27:46;8.80;99.90
10336;DHT22;5213;53.548;9.930;2024-02-21T02:30:12;9.20;99.90
10336;DHT22;5213;53.548;9.930;2024-02-21T02:32:38;8.50;99.90
10336;DHT22;5213;53.548;9.930;2024-02-21T02:35:04;8.60;99.90
10336;DHT22;5213;53.548;9.930;2024-02-21T02:37:30;8.40;99.90
10336;DHT22;5213;53.548;9.930;2024-02-21T02:39:56;8.50;99.90
10336;DHT22;5213;53.548;9.930;2024-02-21T02:42:21;8.80;99.90
10336;DHT22;5213;53.548;9.930;2024-02-21T02:44:47;8.70;60.60
10336;DHT22;5213;53.548;9.930;2024-02-21T02:47:13;8.70;12.90
10336;DHT22;5213;53.548;9.930;2024-02-21T02:49:38;8.80;1.00
10336;DHT22;5213;53.548;9.930;2024-02-21T02:52:04;8.60;1.00
10336;DHT22;5213;53.548;9.930;2024-02-21T02:54:30;8.60;1.00
10336;DHT22;5213;53.548;9.930;2024-02-21T02:56:55;8.70;1.00
10336;DHT22;5213;53.548;9.930;2024-02-21T02:59:21;8.60;1.00
10336;DHT22;5213;53.548;9.930;2024-02-21T03:01:46;9.00;1.00
10336;DHT22;5213;53.548;9.930;2024-02-21T03:04:12;9.40;1.00
10336;DHT22;5213;53.548;9.930;2024-02-21T03:06:38;8.70;1.00
10336;DHT22;5213;53.548;9.930;2024-02-21T03:09:04;8.70;1.00
10336;DHT22;5213;53.548;9.930;2024-02-21T03:11:34;8.70;1.00
10336;DHT22;5213;53.548;9.930;2024-02-21T03:13:59;8.80;1.00
10336;DHT22;5213;53.548;9.930;2024-02-21T03:16:25;9.30;1.00
10336;DHT22;5213;53.548;9.930;2024-02-21T03:18:51;9.40;1.00
10336;DHT22;5213;53.548;9.930;2024-02-21T03:21:16;8.70;1.00
10336;DHT22;5213;53.548;9.930;2024-02-21T03:23:42;8.60;1.00
10336;DHT22;5213;53.548;9.930;2024-02-21T03:26:07;8.80;1.00
10336;DHT22;5213;53.548;9.930;2024-02-21T03:28:33;8.70;1.00
10336;DHT22;5213;53.548;9.930;2024-02-21T03:30:59;8.80;1.00
10336;DHT22;5213;53.548;9.930;2024-02-21T03:33:25;8.90;1.00
10336;DHT22;5213;53.548;9.930;2024-02-21T03:35:51;8.90;1.00
10336;DHT22;5213;53.548;9.930;2024-02-21T03:38:16;8.90;1.00
10336;DHT22;5213;53.548;9.930;2024-02-21T03:40:42;9.00;1.00
10336;DHT22;5213;53.548;9.930;2024-02-21T03:43:07;9.10;1.00
10336;DHT22;5213;53.548;9.930;2024-02-21T03:45:33;8.90;1.00
10336;DHT22;5213;53.548;9.930;2024-02-21T03:47:59;8.80;1.00
10336;DHT22;5213;53.548;9.930;2024-02-21T03:50:25;8.80;1.00
10336;DHT22;5213;53.548;9.930;2024-02-21T03:52:52;9.20;1.00
10336;DHT22;5213;53.548;9.930;2024-02-21T03:55:18;8.90;1.00
10336;DHT22;5213;53.548;9.930;2024-02-21T03:57:44;8.90;1.00
10336;DHT22;5213;53.548;9.930;2024-02-21T04:00:10;9.30;1.00
10336;DHT22;5213;53.548;9.930;2024-02-21T04:02:38;8.90;1.00
10336;DHT22;5213;53.548;9.930;2024-02-21T04:05:05;8.80;1.00
10336;DHT22;5213;53.548;9.930;2024-02-21T04:07:37;8.80;1.00
10336;DHT22;5213;53.548;9.930;2024-02-21T04:10:03;9.30;1.00
10336;DHT22;5213;53.548;9.930;2024-02-21T04:12:29;8.70;1.00
10336;DHT22;5213;53.548;9.930;2024-02-21T04:14:54;8.70;1.00
10336;DHT22;5213;53.548;9.930;2024-02-21T04:17:20;8.50;1.00
10336;DHT22;5213;53.548;9.930;2024-02-21T04:19:45;8.70;1.00
10336;DHT22;5213;53.548;9.930;2024-02-21T04:22:11;8.50;1.00
10336;DHT22;5213;53.548;9.930;2024-02-21T04:24:37;8.50;1.00
10336;DHT22;5213;53.548;9.930;2024-02-21T04:27:02;8.60;1.00
10336;DHT22;5213;53.548;9.930;2024-02-21T04:29:28;8.60;1.00
10336;DHT22;5213;53.548;9.930;2024-02-21T04:31:54;8.60;1.00
10336;DHT22;5213;53.548;9.930;2024-02-21T04:34:20;8.60;1.00
10336;DHT22;5213;53.548;9.930;2024-02-21T04:36:45;8.50;1.00
10336;DHT22;5213;53.548;9.930;2024-02-21T04:39:11;8.50;1.40
10336;DHT22;5213;53.548;9.930;2024-02-21T04:41:37;8.50;14.40
10336;DHT22;5213;53.548;9.930;2024-02-21T04:44:02;8.50;26.00
10336;DHT22;5213;53.548;9.930;2024-02-21T04:46:29;8.50;43.30
10336;DHT22;5213;53.548;9.930;2024-02-21T04:48:55;8.40;77.30
10336;DHT22;5213;53.548;9.930;2024-02-21T04:51:21;8.30;97.80
10336;DHT22;5213;53.548;9.930;2024-02-21T04:53:46;8.80;99.90
10336;DHT22;5213;53.548;9.930;2024-02-21T04:56:12;8.70;99.90
10336;DHT22;5213;53.548;9.930;2024-02-21T04:58:38;8.40;99.90
10336;DHT22;5213;53.548;9.930;2024-02-21T05:01:05;8.30;99.90
10336;DHT22;5213;53.548;9.930;2024-02-21T05:03:30;8.60;99.90
10336;DHT22;5213;53.548;9.930;2024-02-21T05:05:56;8.70;99.90
10336;DHT22;5213;53.548;9.930;2024-02-21T05:08:22;8.30;99.90
10336;DHT22;5213;53.548;9.930;2024-02-21T05:10:47;8.50;99.90
10336;DHT22;5213;53.548;9.930;2024-02-21T05:13:13;8.40;99.90
10336;DHT22;5213;53.548;9.930;2024-02-21T05:15:39;8.40;99.90
10336;DHT22;5213;53.548;9.930;2024-02-21T05:18:04;8.80;99.90
10336;DHT22;5213;53.548;9.930;2024-02-21T05:20:30;8.40;99.90
10336;DHT22;5213;53.548;9.930;2024-02-21T05:22:56;8.30;99.90
10336;DHT22;5213;53.548;9.930;2024-02-21T05:25:21;8.80;99.90
10336;DHT22;5213;53.548;9.930;2024-02-21T05:27:47;8.30;99.90
10336;DHT22;5213;53.548;9.930;2024-02-21T05:30:13;8.30;99.90
10336;DHT22;5213;53.548;9.930;2024-02-21T05:32:39;8.30;99.90
10336;DHT22;5213;53.548;9.930;2024-02-21T05:35:05;8.30;99.90
10336;DHT22;5213;53.548;9.930;2024-02-21T05:37:31;8.40;99.90
10336;DHT22;5213;53.548;9.930;2024-02-21T05:39:56;8.70;99.90
10336;DHT22;5213;53.548;9.930;2024-02-21T05:42:22;8.20;99.90
10336;DHT22;5213;53.548;9.930;2024-02-21T05:44:47;8.20;99.90
10336;DHT22;5213;53.548;9.930;2024-02-21T05:47:13;8.30;99.90
10336;DHT22;5213;53.548;9.930;2024-02-21T05:49:40;8.80;99.90
10336;DHT22;5213;53.548;9.930;2024-02-21T05:52:06;8.30;99.90
10336;DHT22;5213;53.548;9.930;2024-02-21T05:54:31;8.20;99.90
10336;DHT22;5213;53.548;9.930;2024-02-21T05:56:58;8.30;99.90
10336;DHT22;5213;53.548;9.930;2024-02-21T05:59:23;8.40;99.90
10336;DHT22;5213;53.548;9.930;2024-02-21T06:01:56;8.50;99.90
10336;DHT22;5213;53.548;9.930;2024-02-21T06:04:23;8.30;99.90
10336;DHT22;5213;53.548;9.930;2024-02-21T06:06:48;8.40;99.90
10336;DHT22;5213;53.548;9.930;2024-02-21T06:09:14;8.30;99.90
10336;DHT22;5213;53.548;9.930;2024-02-21T06:11:40;8.70;99.90
10336;DHT22;5213;53.548;9.930;2024-02-21T06:14:05;8.20;99.90
10336;DHT22;5213;53.548;9.930;2024-02-21T06:16:31;8.20;99.90
10336;DHT22;5213;53.548;9.930;2024-02-21T06:18:57;8.40;99.90
10336;DHT22;5213;53.548;9.930;2024-02-21T06:21:22;8.40;99.90
10336;DHT22;5213;53.548;9.930;2024-02-21T06:23:48;8.90;99.90
10336;DHT22;5213;53.548;9.930;2024-02-21T06:26:13;8.10;99.90
10336;DHT22;5213;53.548;9.930;2024-02-21T06:28:39;8.10;99.90
10336;DHT22;5213;53.548;9.930;2024-02-21T06:31:04;8.90;99.90
10336;DHT22;5213;53.548;9.930;2024-02-21T06:33:30;8.20;99.90
10336;DHT22;5213;53.548;9.930;2024-02-21T06:35:56;8.40;99.90
10336;DHT22;5213;53.548;9.930;2024-02-21T06:38:22;8.60;99.90
10336;DHT22;5213;53.548;9.930;2024-02-21T06:40:47;8.20;99.90
10336;DHT22;5213;53.548;9.930;2024-02-21T06:43:18;8.20;99.90
10336;DHT22;5213;53.548;9.930;2024-02-21T06:45:44;8.30;99.90
10336;DHT22;5213;53.548;9.930;2024-02-21T06:48:13;8.20;99.90
10336;DHT22;5213;53.548;9.930;2024-02-21T06:50:38;8.70;99.90
10336;DHT22;5213;53.548;9.930;2024-02-21T06:53:04;8.30;99.90
10336;DHT22;5213;53.548;9.930;2024-02-21T06:55:30;8.40;99.90
10336;DHT22;5213;53.548;9.930;2024-02-21T06:57:55;8.40;99.90
10336;DHT22;5213;53.548;9.930;2024-02-21T07:00:21;8.40;99.90
10336;DHT22;5213;53.548;9.930;2024-02-21T07:02:48;8.40;99.90
10336;DHT22;5213;53.548;9.930;2024-02-21T07:05:14;8.60;99.90
10336;DHT22;5213;53.548;9.930;2024-02-21T07:07:39;8.30;99.90
10336;DHT22;5213;53.548;9.930;2024-02-21T07:10:06;8.20;99.90
10336;DHT22;5213;53.548;9.930;2024-02-21T07:12:33;8.40;99.90
10336;DHT22;5213;53.548;9.930;2024-02-21T07:15:00;8.50;99.90
10336;DHT22;5213;53.548;9.930;2024-02-21T07:17:26;8.50;99.90
10336;DHT22;5213;53.548;9.930;2024-02-21T07:19:51;8.40;99.90
10336;DHT22;5213;53.548;9.930;2024-02-21T07:22:17;8.70;99.90
10336;DHT22;5213;53.548;9.930;2024-02-21T07:24:42;8.40;99.90
10336;DHT22;5213;53.548;9.930;2024-02-21T07:27:08;8.50;99.90
10336;DHT22;5213;53.548;9.930;2024-02-21T07:29:33;8.50;99.90
10336;DHT22;5213;53.548;9.930;2024-02-21T07:31:59;8.50;99.90
10336;DHT22;5213;53.548;9.930;2024-02-21T07:34:25;8.40;99.90
10336;DHT22;5213;53.548;9.930;2024-02-21T07:36:50;8.70;99.90
10336;DHT22;5213;53.548;9.930;2024-02-21T07:39:16;8.50;99.90
10336;DHT22;5213;53.548;9.930;2024-02-21T07:41:48;8.50;99.90
10336;DHT22;5213;53.548;9.930;2024-02-21T07:44:15;8.80;99.90
10336;DHT22;5213;53.548;9.930;2024-02-21T07:46:41;8.60;99.90
10336;DHT22;5213;53.548;9.930;2024-02-21T07:49:06;8.40;99.90
10336;DHT22;5213;53.548;9.930;2024-02-21T07:51:32;8.70;99.90
10336;DHT22;5213;53.548;9.930;2024-02-21T07:53:57;8.50;99.90
10336;DHT22;5213;53.548;9.930;2024-02-21T07:56:23;8.70;99.90
10336;DHT22;5213;53.548;9.930;2024-02-21T07:58:48;8.70;99.90
10336;DHT22;5213;53.548;9.930;2024-02-21T08:01:21;8.90;99.90
10336;DHT22;5213;53.548;9.930;2024-02-21T08:03:47;8.50;99.90
10336;DHT22;5213;53.548;9.930;2024-02-21T08:06:13;8.80;99.90
10336;DHT22;5213;53.548;9.930;2024-02-21T08:08:40;9.20;99.90
10336;DHT22;5213;53.548;9.930;2024-02-21T08:11:05;9.20;99.90
10336;DHT22;5213;53.548;9.930;2024-02-21T08:13:31;8.90;99.90
10336;DHT22;5213;53.548;9.930;2024-02-21T08:15:57;8.60;99.90
10336;DHT22;5213;53.548;9.930;2024-02-21T08:18:23;8.50;99.90
10336;DHT22;5213;53.548;9.930;2024-02-21T08:20:48;8.60;99.90
10336;DHT22;5213;53.548;9.930;2024-02-21T08:23:18;8.60;99.90
10336;DHT22;5213;53.548;9.930;2024-02-21T08:25:47;9.00;99.90
10336;DHT22;5213;53.548;9.930;2024-02-21T08:28:13;9.40;99.90
10336;DHT22;5213;53.548;9.930;2024-02-21T08:30:39;8.70;99.90
10336;DHT22;5213;53.548;9.930;2024-02-21T08:33:04;8.70;99.90
10336;DHT22;5213;53.548;9.930;2024-02-21T08:35:33;8.70;99.90
10336;DHT22;5213;53.548;9.930;2024-02-21T08:37:58;8.60;99.90
10336;DHT22;5213;53.548;9.930;2024-02-21T08:40:24;9.00;99.90
10336;DHT22;5213;53.548;9.930;2024-02-21T08:42:49;8.70;99.90
10336;DHT22;5213;53.548;9.930;2024-02-21T08:45:15;8.70;99.90
10336;DHT22;5213;53.548;9.930;2024-02-21T08:47:42;9.00;99.90
10336;DHT22;5213;53.548;9.930;2024-02-21T08:50:08;8.90;99.90
10336;DHT22;5213;53.548;9.930;2024-02-21T08:52:37;8.80;99.90
10336;DHT22;5213;53.548;9.930;2024-02-21T08:55:03;8.70;99.90
10336;DHT22;5213;53.548;9.930;2024-02-21T08:57:46;8.70;99.90
10336;DHT22;5213;53.548;9.930;2024-02-21T09:00:12;8.60;99.90
10336;DHT22;5213;53.548;9.930;2024-02-21T09:02:42;8.50;99.90
10336;DHT22;5213;53.548;9.930;2024-02-21T09:05:10;8.50;99.90
10336;DHT22;5213;53.548;9.930;2024-02-21T09:07:36;8.60;99.90
10336;DHT22;5213;53.548;9.930;2024-02-21T09:10:02;8.90;99.90
10336;DHT22;5213;53.548;9.930;2024-02-21T09:12:28;8.70;98.20
10336;DHT22;5213;53.548;9.930;2024-02-21T09:14:54;8.70;82.10
10336;DHT22;5213;53.548;9.930;2024-02-21T09:17:20;8.40;64.60
10336;DHT22;5213;53.548;9.930;2024-02-21T09:19:47;8.50;91.10
10336;DHT22;5213;53.548;9.930;2024-02-21T09:22:13;8.60;69.00
10336;DHT22;5213;53.548;9.930;2024-02-21T09:24:39;8.60;70.60
10336;DHT22;5213;53.548;9.930;2024-02-21T09:27:05;8.70;81.00
10336;DHT22;5213;53.548;9.930;2024-02-21T09:29:31;8.70;92.70
10336;DHT22;5213;53.548;9.930;2024-02-21T09:31:59;8.50;8.90
10336;DHT22;5213;53.548;9.930;2024-02-21T09:34:24;8.90;20.90
10336;DHT22;5213;53.548;9.930;2024-02-21T09:36:50;8.60;24.50
10336;DHT22;5213;53.548;9.930;2024-02-21T09:39:16;9.10;24.10
10336;DHT22;5213;53.548;9.930;2024-02-21T09:41:47;8.70;25.20
10336;DHT22;5213;53.548;9.930;2024-02-21T09:44:18;9.30;29.00
10336;DHT22;5213;53.548;9.930;2024-02-21T09:46:57;8.80;26.30
10336;DHT22;5213;53.548;9.930;2024-02-21T09:49:35;8.90;19.40
10336;DHT22;5213;53.548;9.930;2024-02-21T09:52:06;9.30;13.10
10336;DHT22;5213;53.548;9.930;2024-02-21T09:54:33;8.80;15.60
10336;DHT22;5213;53.548;9.930;2024-02-21T09:57:00;9.00;17.70
10336;DHT22;5213;53.548;9.930;2024-02-21T09:59:27;9.70;14.50
10336;DHT22;5213;53.548;9.930;2024-02-21T10:01:54;9.80;23.10
10336;DHT22;5213;53.548;9.930;2024-02-21T10:04:20;9.00;29.90
10336;DHT22;5213;53.548;9.930;2024-02-21T10:06:46;9.50;32.80
10336;DHT22;5213;53.548;9.930;2024-02-21T10:09:25;8.70;50.30
10336;DHT22;5213;53.548;9.930;2024-02-21T10:11:53;9.10;65.60
10336;DHT22;5213;53.548;9.930;2024-02-21T10:14:19;9.30;85.90
10336;DHT22;5213;53.548;9.930;2024-02-21T10:16:56;8.50;94.70
10336;DHT22;5213;53.548;9.930;2024-02-21T10:19:23;9.20;99.00
10336;DHT22;5213;53.548;9.930;2024-02-21T10:22:05;9.60;99.90
10336;DHT22;5213;53.548;9.930;2024-02-21T10:24:33;9.30;91.30
10336;DHT22;5213;53.548;9.930;2024-02-21T10:27:06;9.20;35.30
10336;DHT22;5213;53.548;9.930;2024-02-21T10:29:36;9.50;24.30
10336;DHT22;5213;53.548;9.930;2024-02-21T10:32:12;9.50;12.80
10336;DHT22;5213;53.548;9.930;2024-02-21T10:34:40;10.10;1.00
10336;DHT22;5213;53.548;9.930;2024-02-21T10:37:09;9.30;1.00
10336;DHT22;5213;53.548;9.930;2024-02-21T10:39:38;9.40;1.00
10336;DHT22;5213;53.548;9.930;2024-02-21T10:42:04;9.30;1.00
10336;DHT22;5213;53.548;9.930;2024-02-21T10:44:36;9.60;1.00
10336;DHT22;5213;53.548;9.930;2024-02-21T10:47:09;9.60;1.00
10336;DHT22;5213;53.548;9.930;2024-02-21T10:49:40;9.50;1.00
10336;DHT22;5213;53.548;9.930;2024-02-21T10:52:30;9.50;1.00
10336;DHT22;5213;53.548;9.930;2024-02-21T10:55:05;9.50;1.00
10336;DHT22;5213;53.548;9.930;2024-02-21T10:57:34;9.60;1.00
10336;DHT22;5213;53.548;9.930;2024-02-21T11:00:03;9.50;1.00
10336;DHT22;5213;53.548;9.930;2024-02-21T11:02:34;9.50;1.00
10336;DHT22;5213;53.548;9.930;2024-02-21T11:05:01;9.50;1.00
10336;DHT22;5213;53.548;9.930;2024-02-21T11:07:29;9.70;1.00
10336;DHT22;5213;53.548;9.930;2024-02-21T11:09:55;9.60;1.00
10336;DHT22;5213;53.548;9.930;2024-02-21T11:12:21;9.60;1.00
10336;DHT22;5213;53.548;9.930;2024-02-21T11:14:47;9.50;1.00
10336;DHT22;5213;53.548;9.930;2024-02-21T11:17:20;9.60;1.00
10336;DHT22;5213;53.548;9.930;2024-02-21T11:19:52;9.40;1.00
10336;DHT22;5213;53.548;9.930;2024-02-21T11:22:18;9.60;1.00
10336;DHT22;5213;53.548;9.930;2024-02-21T11:24:45;9.50;1.00
10336;DHT22;5213;53.548;9.930;2024-02-21T11:27:15;9.60;1.00
10336;DHT22;5213;53.548;9.930;2024-02-21T11:32:11;9.50;1.00
10336;DHT22;5213;53.548;9.930;2024-02-21T11:34:37;9.80;1.00
10336;DHT22;5213;53.548;9.930;2024-02-21T11:37:13;9.70;1.00
10336;DHT22;5213;53.548;9.930;2024-02-21T11:39:41;9.40;1.00
10336;DHT22;5213;53.548;9.930;2024-02-21T11:42:07;9.40;1.00
10336;DHT22;5213;53.548;9.930;2024-02-21T11:44:35;9.60;1.00
10336;DHT22;5213;53.548;9.930;2024-02-21T11:47:01;9.40;1.00
10336;DHT22;5213;53.548;9.930;2024-02-21T11:49:29;9.40;1.00
10336;DHT22;5213;53.548;9.930;2024-02-21T11:52:02;9.70;1.00
10336;DHT22;5213;53.548;9.930;2024-02-21T11:54:30;9.40;1.00
10336;DHT22;5213;53.548;9.930;2024-02-21T11:56:56;9.40;1.00
10336;DHT22;5213;53.548;9.930;2024-02-21T11:59:21;9.40;1.00
10336;DHT22;5213;53.548;9.930;2024-02-21T12:01:48;9.80;1.00
10336;DHT22;5213;53.548;9.930;2024-02-21T12:04:15;10.20;1.00
10336;DHT22;5213;53.548;9.930;2024-02-21T12:06:43;9.70;1.00
10336;DHT22;5213;53.548;9.930;2024-02-21T12:09:08;9.70;1.00
10336;DHT22;5213;53.548;9.930;2024-02-21T12:11:34;9.70;1.00
10336;DHT22;5213;53.548;9.930;2024-02-21T12:14:01;9.60;1.00
10336;DHT22;5213;53.548;9.930;2024-02-21T12:16:29;9.60;1.00
10336;DHT22;5213;53.548;9.930;2024-02-21T12:18:56;9.40;1.00
10336;DHT22;5213;53.548;9.930;2024-02-21T12:21:26;9.50;1.00
10336;DHT22;5213;53.548;9.930;2024-02-21T12:23:56;9.90;1.00
10336;DHT22;5213;53.548;9.930;2024-02-21T12:26:22;10.00;1.00
10336;DHT22;5213;53.548;9.930;2024-02-21T12:28:48;9.50;1.00
10336;DHT22;5213;53.548;9.930;2024-02-21T12:31:14;9.40;1.00
10336;DHT22;5213;53.548;9.930;2024-02-21T12:33:42;9.80;1.00
10336;DHT22;5213;53.548;9.930;2024-02-21T12:36:08;9.60;1.00
10336;DHT22;5213;53.548;9.930;2024-02-21T12:38:34;9.60;1.00
10336;DHT22;5213;53.548;9.930;2024-02-21T12:41:01;9.60;1.00
10336;DHT22;5213;53.548;9.930;2024-02-21T12:43:26;9.70;1.00
10336;DHT22;5213;53.548;9.930;2024-02-21T12:45:52;9.50;1.00
10336;DHT22;5213;53.548;9.930;2024-02-21T12:48:18;9.70;1.00
10336;DHT22;5213;53.548;9.930;2024-02-21T12:50:50;9.40;1.00
10336;DHT22;5213;53.548;9.930;2024-02-21T12:53:19;9.50;1.00
10336;DHT22;5213;53.548;9.930;2024-02-21T12:55:50;9.50;1.00
10336;DHT22;5213;53.548;9.930;2024-02-21T12:58:16;9.80;1.00
10336;DHT22;5213;53.548;9.930;2024-02-21T13:00:42;9.60;1.00
10336;DHT22;5213;53.548;9.930;2024-02-21T13:03:08;10.00;1.00
10336;DHT22;5213;53.548;9.930;2024-02-21T13:05:37;9.80;1.00
10336;DHT22;5213;53.548;9.930;2024-02-21T13:08:07;9.90;1.00
10336;DHT22;5213;53.548;9.930;2024-02-21T13:10:33;9.90;1.00
10336;DHT22;5213;53.548;9.930;2024-02-21T13:13:00;10.40;1.00
10336;DHT22;5213;53.548;9.930;2024-02-21T13:15:26;10.20;1.00
10336;DHT22;5213;53.548;9.930;2024-02-21T13:17:53;10.60;1.00
10336;DHT22;5213;53.548;9.930;2024-02-21T13:20:20;10.40;1.00
10336;DHT22;5213;53.548;9.930;2024-02-21T13:22:46;10.50;1.00
10336;DHT22;5213;53.548;9.930;2024-02-21T13:25:12;10.40;1.00
10336;DHT22;5213;53.548;9.930;2024-02-21T13:27:41;10.80;1.00
10336;DHT22;5213;53.548;9.930;2024-02-21T13:30:07;10.60;1.00
10336;DHT22;5213;53.548;9.930;2024-02-21T13:32:34;10.40;1.00
10336;DHT22;5213;53.548;9.930;2024-02-21T13:35:00;10.30;1.00
10336;DHT22;5213;53.548;9.930;2024-02-21T13:37:27;10.50;1.00
10336;DHT22;5213;53.548;9.930;2024-02-21T13:39:52;10.70;1.00
10336;DHT22;5213;53.548;9.930;2024-02-21T13:42:19;10.60;1.00
10336;DHT22;5213;53.548;9.930;2024-02-21T13:44:44;10.60;1.00
10336;DHT22;5213;53.548;9.930;2024-02-21T13:47:14;10.90;1.00
10336;DHT22;5213;53.548;9.930;2024-02-21T13:49:40;10.50;1.00
10336;DHT22;5213;53.548;9.930;2024-02-21T13:52:06;10.80;1.00
10336;DHT22;5213;53.548;9.930;2024-02-21T13:54:32;10.50;1.00
10336;DHT22;5213;53.548;9.930;2024-02-21T13:56:58;10.60;1.00
10336;DHT22;5213;53.548;9.930;2024-02-21T13:59:23;11.00;1.00
10336;DHT22;5213;53.548;9.930;2024-02-21T14:01:49;10.70;99.90
10336;DHT22;5213;53.548;9.930;2024-02-21T14:04:14;10.90;99.90
10336;DHT22;5213;53.548;9.930;2024-02-21T14:06:40;11.50;99.90
10336;DHT22;5213;53.548;9.930;2024-02-21T14:09:09;10.90;99.90
10336;DHT22;5213;53.548;9.930;2024-02-21T14:11:35;11.20;99.90
10336;DHT22;5213;53.548;9.930;2024-02-21T14:14:01;10.90;99.90
10336;DHT22;5213;53.548;9.930;2024-02-21T14:16:26;11.10;99.90
10336;DHT22;5213;53.548;9.930;2024-02-21T14:18:52;11.40;99.90
10336;DHT22;5213;53.548;9.930;2024-02-21T14:21:19;11.30;99.90
10336;DHT22;5213;53.548;9.930;2024-02-21T14:23:45;11.50;99.90
10336;DHT22;5213;53.548;9.930;2024-02-21T14:26:11;11.20;99.90
10336;DHT22;5213;53.548;9.930;2024-02-21T14:28:37;11.20;99.90
10336;DHT22;5213;53.548;9.930;2024-02-21T14:31:03;11.20;99.90
10336;DHT22;5213;53.548;9.930;2024-02-21T14:33:31;11.10;99.90
10336;DHT22;5213;53.548;9.930;2024-02-21T14:35:56;11.20;99.90
10336;DHT22;5213;53.548;9.930;2024-02-21T14:38:22;11.00;99.90
10336;DHT22;5213;53.548;9.930;2024-02-21T14:40:48;11.10;99.90
10336;DHT22;5213;53.548;9.930;2024-02-21T14:43:13;11.00;99.90
10336;DHT22;5213;53.548;9.930;2024-02-21T14:45:40;11.10;99.90
10336;DHT22;5213;53.548;9.930;2024-02-21T14:48:06;11.10;99.90
10336;DHT22;5213;53.548;9.930;2024-02-21T14:50:32;11.00;99.90
10336;DHT22;5213;53.548;9.930;2024-02-21T14:52:58;11.00;99.90
10336;DHT22;5213;53.548;9.930;2024-02-21T14:55:23;11.00;99.90
10336;DHT22;5213;53.548;9.930;2024-02-21T14:57:50;11.00;99.90
10336;DHT22;5213;53.548;9.930;2024-02-21T15:00:16;11.30;99.90
10336;DHT22;5213;53.548;9.930;2024-02-21T15:02:41;10.70;99.90
10336;DHT22;5213;53.548;9.930;2024-02-21T15:05:08;10.80;99.90
10336;DHT22;5213;53.548;9.930;2024-02-21T15:07:34;10.70;99.90
10336;DHT22;5213;53.548;9.930;2024-02-21T15:09:59;10.60;99.90
10336;DHT22;5213;53.548;9.930;2024-02-21T15:12:25;10.70;99.90
10336;DHT22;5213;53.548;9.930;2024-02-21T15:14:51;10.40;99.90
10336;DHT22;5213;53.548;9.930;2024-02-21T15:17:17;10.30;99.90
10336;DHT22;5213;53.548;9.930;2024-02-21T15:19:43;11.10;99.90
10336;DHT22;5213;53.548;9.930;2024-02-21T15:22:13;10.40;99.90
10336;DHT22;5213;53.548;9.930;2024-02-21T15:24:39;10.20;99.90
10336;DHT22;5213;53.548;9.930;2024-02-21T15:27:06;10.50;99.90
10336;DHT22;5213;53.548;9.930;2024-02-21T15:29:32;10.20;99.90
10336;DHT22;5213;53.548;9.930;2024-02-21T15:31:57;10.10;99.90
10336;DHT22;5213;53.548;9.930;2024-02-21T15:34:23;10.40;99.90
10336;DHT22;5213;53.548;9.930;2024-02-21T15:36:49;10.20;99.90
10336;DHT22;5213;53.548;9.930;2024-02-21T15:39:14;9.90;99.90
10336;DHT22;5213;53.548;9.930;2024-02-21T15:41:40;10.90;99.90
10336;DHT22;5213;53.548;9.930;2024-02-21T15:44:06;10.00;99.90
10336;DHT22;5213;53.548;9.930;2024-02-21T15:46:32;10.00;99.90
10336;DHT22;5213;53.548;9.930;2024-02-21T15:49:01;10.10;99.90
10336;DHT22;5213;53.548;9.930;2024-02-21T15:51:29;10.10;99.90
10336;DHT22;5213;53.548;9.930;2024-02-21T15:53:56;9.80;99.90
10336;DHT22;5213;53.548;9.930;2024-02-21T15:56:21;9.60;99.90
10336;DHT22;5213;53.548;9.930;2024-02-21T15:58:48;9.80;99.90
10336;DHT22;5213;53.548;9.930;2024-02-21T16:01:14;10.30;99.90
10336;DHT22;5213;53.548;9.930;2024-02-21T16:03:41;10.20;99.90
10336;DHT22;5213;53.548;9.930;2024-02-21T16:06:06;10.60;99.90